createdAt,value
2022-12-01T00:01:26.279Z,8.43
2022-12-01T00:03:54.791Z,8.73
2022-12-01T00:06:22.864Z,8.71
2022-12-01T00:09:18.013Z,9.03
2022-12-01T00:11:47.424Z,8.81
2022-12-01T00:14:17.342Z,8.94
2022-12-01T00:16:45.458Z,8.96
2022-12-01T00:19:13.287Z,9.06
2022-12-01T00:21:41.085Z,9.00
2022-12-01T00:24:11.196Z,8.91
2022-12-01T00:26:39.666Z,8.91
2022-12-01T00:29:07.359Z,8.89
2022-12-01T00:31:36.934Z,8.81
2022-12-01T00:34:09.689Z,8.81
2022-12-01T00:36:39.586Z,8.94
2022-12-01T00:39:07.275Z,8.80
2022-12-01T00:41:35.081Z,8.94
2022-12-01T00:44:02.899Z,8.70
2022-12-01T00:46:30.722Z,8.96
2022-12-01T00:48:59.876Z,8.91
2022-12-01T00:51:27.675Z,9.09
2022-12-01T00:53:55.488Z,8.81
2022-12-01T00:56:23.238Z,9.02
2022-12-01T00:58:51.012Z,9.00
2022-12-01T01:01:18.785Z,8.99
2022-12-01T01:03:46.653Z,9.01
2022-12-01T01:06:16.495Z,9.06
2022-12-01T01:08:44.215Z,8.98
2022-12-01T01:11:12.243Z,9.15
2022-12-01T01:13:40.118Z,9.11
2022-12-01T01:16:11.369Z,9.16
2022-12-01T01:18:39.116Z,9.01
2022-12-01T01:21:12.018Z,9.01
2022-12-01T01:23:41.241Z,8.99
2022-12-01T01:26:12.035Z,9.03
2022-12-01T01:28:41.516Z,9.03
2022-12-01T01:31:09.750Z,9.00
2022-12-01T01:33:37.692Z,8.87
2022-12-01T01:36:06.143Z,8.89
2022-12-01T01:38:34.932Z,8.76
2022-12-01T01:41:04.908Z,8.91
2022-12-01T01:43:50.679Z,8.86
2022-12-01T01:46:20.238Z,8.69
2022-12-01T01:48:51.982Z,8.67
2022-12-01T01:51:23.447Z,8.62
2022-12-01T01:53:54.872Z,8.52
2022-12-01T01:56:24.537Z,8.43
2022-12-01T01:58:54.191Z,8.47
2022-12-01T02:01:22.077Z,8.39
2022-12-01T02:03:53.578Z,8.51
2022-12-01T02:06:23.103Z,8.26
2022-12-01T02:08:51.119Z,8.33
2022-12-01T02:11:48.617Z,7.78
2022-12-01T02:14:41.035Z,8.01
2022-12-01T02:17:20.721Z,8.08
2022-12-01T02:20:18.182Z,8.12
2022-12-01T02:22:58.993Z,8.00
2022-12-01T02:25:41.393Z,7.91
2022-12-01T02:28:28.827Z,8.28
2022-12-01T02:31:01.958Z,8.04
2022-12-01T02:33:37.103Z,8.26
2022-12-01T02:36:14.868Z,8.29
2022-12-01T02:38:52.995Z,8.31
2022-12-01T02:41:27.954Z,8.36
2022-12-01T02:44:00.375Z,8.10
2022-12-01T02:46:35.140Z,8.11
2022-12-01T02:49:07.524Z,8.17
2022-12-01T02:51:38.238Z,8.08
2022-12-01T02:54:06.997Z,8.06
2022-12-01T02:56:34.813Z,8.08
2022-12-01T02:59:02.556Z,8.00
2022-12-01T03:01:47.157Z,7.92
2022-12-01T03:04:53.362Z,7.80
2022-12-01T03:07:40.620Z,7.59
2022-12-01T03:10:17.772Z,7.50
2022-12-01T03:12:54.795Z,7.54
2022-12-01T03:15:32.560Z,7.53
2022-12-01T03:18:10.707Z,7.59
2022-12-01T03:20:43.751Z,7.64
2022-12-01T03:23:16.292Z,7.39
2022-12-01T03:25:48.171Z,7.39
2022-12-01T03:28:21.682Z,7.35
2022-12-01T03:30:54.278Z,7.44
2022-12-01T03:33:28.225Z,7.39
2022-12-01T03:36:00.982Z,7.39
2022-12-01T03:38:30.591Z,7.20
2022-12-01T03:41:02.847Z,7.19
2022-12-01T03:43:35.534Z,7.13
2022-12-01T03:46:11.050Z,7.10
2022-12-01T03:48:41.603Z,7.12
2022-12-01T03:51:17.540Z,7.05
2022-12-01T03:53:54.041Z,6.76
2022-12-01T03:56:25.648Z,6.86
2022-12-01T03:58:58.291Z,6.88
2022-12-01T04:01:28.226Z,6.90
2022-12-01T04:03:57.318Z,6.82
2022-12-01T04:06:25.117Z,6.79
2022-12-01T04:08:52.899Z,6.77
2022-12-01T04:11:43.515Z,6.84
2022-12-01T04:14:11.323Z,6.83
2022-12-01T04:16:39.047Z,6.86
2022-12-01T04:19:08.447Z,6.76
2022-12-01T04:21:36.224Z,6.83
2022-12-01T04:24:04.090Z,6.82
2022-12-01T04:26:33.804Z,6.85
2022-12-01T04:29:02.188Z,6.91
2022-12-01T04:31:30.461Z,6.83
2022-12-01T04:33:58.962Z,6.75
2022-12-01T04:36:31.052Z,6.73
2022-12-01T04:38:58.932Z,6.68
2022-12-01T04:41:27.079Z,6.68
2022-12-01T04:43:55.201Z,6.65
2022-12-01T04:46:23.345Z,6.52
2022-12-01T04:48:51.153Z,6.57
2022-12-01T04:51:19.327Z,6.65
2022-12-01T04:53:48.426Z,6.60
2022-12-01T04:56:16.160Z,6.61
2022-12-01T04:58:43.935Z,6.53
2022-12-01T05:01:14.119Z,6.53
2022-12-01T05:03:43.514Z,6.52
2022-12-01T05:06:13.559Z,6.57
2022-12-01T05:08:41.689Z,6.54
2022-12-01T05:11:12.285Z,6.47
2022-12-01T05:13:41.678Z,6.57
2022-12-01T05:16:11.584Z,6.57
2022-12-01T05:18:40.015Z,6.57
2022-12-01T05:21:09.304Z,6.49
2022-12-01T05:23:38.781Z,6.46
2022-12-01T05:26:08.150Z,6.28
2022-12-01T05:28:37.425Z,6.36
2022-12-01T05:31:05.383Z,6.13
2022-12-01T05:33:33.292Z,6.09
2022-12-01T05:36:01.020Z,6.03
2022-12-01T05:38:28.864Z,5.97
2022-12-01T05:40:57.475Z,5.94
2022-12-01T05:43:28.968Z,5.90
2022-12-01T05:45:59.001Z,5.91
2022-12-01T05:48:27.112Z,5.75
2022-12-01T05:50:54.857Z,5.76
2022-12-01T05:53:22.841Z,5.74
2022-12-01T05:55:53.094Z,5.79
2022-12-01T05:58:20.879Z,6.08
2022-12-01T06:00:48.579Z,6.01
2022-12-01T06:03:17.710Z,6.03
2022-12-01T06:05:45.526Z,6.15
2022-12-01T06:08:13.314Z,6.11
2022-12-01T06:10:41.049Z,6.09
2022-12-01T06:13:08.854Z,6.02
2022-12-01T06:15:37.396Z,5.89
2022-12-01T06:18:05.532Z,5.69
2022-12-01T06:20:34.600Z,5.76
2022-12-01T06:23:02.343Z,5.74
2022-12-01T06:25:30.090Z,5.54
2022-12-01T06:27:58.405Z,5.69
2022-12-01T06:30:26.776Z,5.93
2022-12-01T06:32:54.623Z,5.94
2022-12-01T06:35:22.292Z,5.93
2022-12-01T06:37:53.756Z,6.00
2022-12-01T06:40:22.035Z,5.65
2022-12-01T06:42:49.891Z,5.60
2022-12-01T06:45:17.905Z,5.74
2022-12-01T06:47:48.102Z,5.86
2022-12-01T06:50:15.971Z,5.76
2022-12-01T06:52:43.717Z,5.47
2022-12-01T06:55:12.765Z,5.63
2022-12-01T06:57:40.896Z,5.79
2022-12-01T07:00:09.973Z,5.47
2022-12-01T07:02:38.969Z,5.30
2022-12-01T07:05:07.608Z,5.26
2022-12-01T07:07:37.255Z,5.25
2022-12-01T07:10:05.468Z,5.28
2022-12-01T07:12:35.156Z,5.45
2022-12-01T07:15:02.988Z,5.69
2022-12-01T07:17:31.288Z,5.59
2022-12-01T07:19:59.363Z,5.73
2022-12-01T07:22:32.431Z,5.79
2022-12-01T07:25:00.498Z,5.76
2022-12-01T07:27:30.815Z,5.68
2022-12-01T07:29:59.909Z,5.69
2022-12-01T07:32:27.787Z,5.85
2022-12-01T07:34:55.486Z,5.85
2022-12-01T07:37:23.304Z,5.96
2022-12-01T07:39:51.218Z,5.90
2022-12-01T07:42:19.056Z,5.93
2022-12-01T07:44:46.778Z,5.95
2022-12-01T07:47:15.898Z,5.90
2022-12-01T07:49:43.685Z,5.88
2022-12-01T07:52:11.433Z,5.90
2022-12-01T07:54:39.200Z,5.74
2022-12-01T07:57:06.929Z,5.68
2022-12-01T07:59:34.812Z,5.67
2022-12-01T08:02:02.653Z,5.59
2022-12-01T08:04:31.795Z,5.63
2022-12-01T08:06:59.552Z,5.77
2022-12-01T08:09:27.306Z,5.77
2022-12-01T08:11:55.000Z,5.69
2022-12-01T08:14:22.831Z,5.80
2022-12-01T08:16:50.597Z,5.88
2022-12-01T08:19:18.392Z,5.65
2022-12-01T08:21:47.436Z,6.08
2022-12-01T08:24:15.112Z,6.05
2022-12-01T08:26:42.903Z,6.09
2022-12-01T08:29:11.918Z,6.01
2022-12-01T08:31:42.435Z,6.05
2022-12-01T08:34:10.254Z,6.04
2022-12-01T08:36:37.988Z,5.99
2022-12-01T08:39:09.428Z,6.17
2022-12-01T08:41:37.204Z,6.14
2022-12-01T08:44:05.133Z,6.38
2022-12-01T08:46:34.619Z,6.49
2022-12-01T08:49:02.931Z,6.34
2022-12-01T08:51:30.722Z,6.36
2022-12-01T08:53:59.540Z,5.96
2022-12-01T08:56:30.808Z,5.89
2022-12-01T08:58:59.012Z,6.18
2022-12-01T09:01:27.248Z,6.25
2022-12-01T09:04:06.703Z,6.46
2022-12-01T09:06:38.589Z,6.30
2022-12-01T09:09:06.452Z,6.49
2022-12-01T09:11:35.529Z,6.77
2022-12-01T09:14:03.396Z,6.63
2022-12-01T09:16:31.305Z,6.77
2022-12-01T09:18:59.215Z,6.76
2022-12-01T09:21:30.298Z,6.73
2022-12-01T09:23:58.574Z,6.23
2022-12-01T09:26:26.519Z,6.01
2022-12-01T09:28:58.074Z,5.79
2022-12-01T09:31:26.148Z,5.43
2022-12-01T09:33:58.238Z,5.63
2022-12-01T09:36:26.703Z,5.45
2022-12-01T09:38:54.443Z,5.58
2022-12-01T09:41:25.433Z,5.57
2022-12-01T09:44:01.105Z,5.82
2022-12-01T09:46:34.286Z,6.02
2022-12-01T09:49:03.663Z,5.81
2022-12-01T09:51:34.846Z,5.62
2022-12-01T09:54:03.673Z,5.48
2022-12-01T09:56:34.523Z,5.59
2022-12-01T09:59:08.205Z,5.42
2022-12-01T10:01:39.260Z,5.65
2022-12-01T10:04:11.880Z,5.52
2022-12-01T10:06:44.816Z,5.87
2022-12-01T10:09:22.581Z,6.01
2022-12-01T10:11:54.972Z,5.81
2022-12-01T10:14:24.115Z,5.80
2022-12-01T10:17:02.023Z,6.08
2022-12-01T10:19:34.971Z,6.14
2022-12-01T10:22:21.392Z,6.22
2022-12-01T10:24:55.651Z,6.25
2022-12-01T10:27:40.063Z,6.08
2022-12-01T10:30:13.872Z,6.32
2022-12-01T10:32:52.293Z,6.15
2022-12-01T10:35:23.753Z,6.01
2022-12-01T10:37:57.031Z,6.30
2022-12-01T10:40:25.385Z,6.28
2022-12-01T10:42:53.154Z,6.39
2022-12-01T10:45:25.085Z,6.20
2022-12-01T10:48:17.680Z,5.82
2022-12-01T10:50:47.608Z,6.19
2022-12-01T10:53:30.456Z,6.21
2022-12-01T10:56:04.098Z,5.80
2022-12-01T10:58:32.946Z,6.11
2022-12-01T11:01:04.836Z,6.20
2022-12-01T11:03:34.502Z,6.28
2022-12-01T11:06:05.825Z,6.24
2022-12-01T11:08:40.479Z,6.04
2022-12-01T11:11:25.197Z,6.24
2022-12-01T11:13:53.246Z,6.46
2022-12-01T11:16:38.440Z,6.10
2022-12-01T11:19:21.877Z,6.55
2022-12-01T11:21:56.797Z,6.64
2022-12-01T11:24:34.490Z,6.58
2022-12-01T11:27:02.359Z,6.75
2022-12-01T11:29:36.094Z,6.85
2022-12-01T11:32:19.869Z,6.98
2022-12-01T11:34:50.429Z,6.78
2022-12-01T11:37:21.193Z,7.26
2022-12-01T11:39:49.946Z,7.08
2022-12-01T11:42:24.175Z,7.30
2022-12-01T11:44:56.004Z,7.54
2022-12-01T11:47:26.899Z,7.52
2022-12-01T11:49:56.731Z,7.64
2022-12-01T11:52:28.316Z,7.53
2022-12-01T11:54:58.299Z,7.36
2022-12-01T11:57:34.257Z,7.51
2022-12-01T12:00:03.324Z,8.00
2022-12-01T12:02:40.990Z,8.16
2022-12-01T12:05:45.326Z,7.83
2022-12-01T12:08:26.148Z,8.01
2022-12-01T12:11:03.156Z,8.13
2022-12-01T12:13:57.531Z,8.16
2022-12-01T12:16:39.255Z,8.36
2022-12-01T12:19:33.726Z,8.35
2022-12-01T12:22:21.051Z,8.35
2022-12-01T12:25:04.156Z,8.61
2022-12-01T12:27:41.155Z,8.65
2022-12-01T12:30:22.456Z,8.95
2022-12-01T12:33:29.792Z,8.96
2022-12-01T12:36:11.567Z,9.29
2022-12-01T12:38:50.484Z,9.36
2022-12-01T12:41:29.688Z,9.58
2022-12-01T12:44:08.866Z,9.29
2022-12-01T12:46:45.859Z,9.16
2022-12-01T12:49:27.424Z,9.28
2022-12-01T12:52:08.176Z,9.08
2022-12-01T12:54:44.416Z,9.19
2022-12-01T12:57:22.960Z,9.73
2022-12-01T12:59:56.071Z,10.08
2022-12-01T13:02:30.425Z,10.38
2022-12-01T13:05:04.623Z,10.33
2022-12-01T13:07:41.484Z,10.48
2022-12-01T13:10:20.613Z,10.23
2022-12-01T13:12:56.160Z,10.38
2022-12-01T13:15:24.049Z,10.30
2022-12-01T13:17:55.032Z,10.17
2022-12-01T13:20:27.614Z,10.22
2022-12-01T13:22:58.875Z,10.43
2022-12-01T13:25:31.109Z,10.65
2022-12-01T13:28:01.657Z,10.24
2022-12-01T13:30:29.716Z,10.25
2022-12-01T13:33:03.507Z,9.90
2022-12-01T13:35:35.000Z,10.03
2022-12-01T13:38:24.812Z,10.55
2022-12-01T13:41:11.656Z,10.01
2022-12-01T13:43:52.888Z,10.61
2022-12-01T13:46:23.917Z,10.28
2022-12-01T13:48:53.681Z,9.89
2022-12-01T13:51:21.351Z,10.18
2022-12-01T13:54:05.132Z,10.61
2022-12-01T13:56:45.254Z,10.57
2022-12-01T13:59:55.968Z,10.78
2022-12-01T14:02:23.819Z,10.70
2022-12-01T14:04:52.082Z,10.41
2022-12-01T14:07:39.439Z,10.37
2022-12-01T14:10:30.212Z,10.40
2022-12-01T14:13:02.624Z,10.50
2022-12-01T14:15:40.315Z,10.52
2022-12-01T14:18:24.012Z,10.48
2022-12-01T14:20:51.973Z,10.43
2022-12-01T14:23:28.941Z,10.69
2022-12-01T14:26:12.616Z,10.58
2022-12-01T14:29:10.653Z,10.29
2022-12-01T14:32:04.851Z,10.53
2022-12-01T14:34:34.755Z,10.36
2022-12-01T14:37:07.731Z,10.52
2022-12-01T14:39:38.900Z,10.46
2022-12-01T14:42:38.388Z,10.29
2022-12-01T14:45:09.028Z,10.29
2022-12-01T14:47:43.447Z,10.22
2022-12-01T14:50:17.893Z,10.39
2022-12-01T14:52:50.246Z,10.32
2022-12-01T14:55:21.876Z,10.57
2022-12-01T14:57:52.821Z,10.56
2022-12-01T15:00:23.176Z,10.72
2022-12-01T15:02:55.015Z,10.58
2022-12-01T15:05:27.060Z,10.63
2022-12-01T15:08:18.761Z,10.46
2022-12-01T15:10:52.989Z,10.47
2022-12-01T15:13:27.919Z,10.44
2022-12-01T15:15:57.811Z,10.30
2022-12-01T15:18:29.732Z,10.51
2022-12-01T15:21:01.746Z,10.63
2022-12-01T15:23:29.519Z,10.60
2022-12-01T15:25:57.846Z,10.44
2022-12-01T15:28:33.239Z,10.29
2022-12-01T15:31:02.772Z,10.21
2022-12-01T15:33:36.941Z,10.19
2022-12-01T15:36:06.128Z,10.20
2022-12-01T15:38:37.164Z,10.08
2022-12-01T15:41:28.675Z,10.04
2022-12-01T15:43:58.113Z,9.94
2022-12-01T15:46:30.724Z,9.85
2022-12-01T15:49:09.274Z,9.88
2022-12-01T15:51:37.112Z,9.82
2022-12-01T15:54:05.300Z,9.61
2022-12-01T15:56:35.483Z,9.63
2022-12-01T15:59:09.781Z,9.79
2022-12-01T16:01:38.519Z,9.62
2022-12-01T16:04:15.451Z,9.62
2022-12-01T16:06:43.695Z,9.61
2022-12-01T16:09:22.764Z,9.59
2022-12-01T16:12:17.842Z,9.66
2022-12-01T16:14:56.567Z,9.49
2022-12-01T16:17:25.504Z,9.39
2022-12-01T16:20:23.466Z,9.05
2022-12-01T16:22:56.614Z,9.14
2022-12-01T16:25:30.939Z,9.18
2022-12-01T16:27:59.132Z,9.18
2022-12-01T16:30:31.369Z,9.18
2022-12-01T16:33:04.215Z,9.11
2022-12-01T16:35:34.446Z,8.92
2022-12-01T16:38:11.284Z,8.87
2022-12-01T16:40:41.756Z,8.80
2022-12-01T16:43:14.672Z,8.91
2022-12-01T16:45:44.394Z,8.82
2022-12-01T16:48:12.345Z,8.74
2022-12-01T16:50:40.984Z,8.58
2022-12-01T16:53:08.734Z,8.52
2022-12-01T16:55:39.512Z,8.44
2022-12-01T16:58:07.336Z,8.30
2022-12-01T17:00:35.587Z,8.20
2022-12-01T17:03:05.813Z,8.08
2022-12-01T17:05:34.215Z,7.93
2022-12-01T17:08:02.004Z,7.98
2022-12-01T17:10:29.933Z,8.11
2022-12-01T17:12:58.322Z,8.01
2022-12-01T17:15:26.200Z,7.96
2022-12-01T17:17:54.486Z,7.93
2022-12-01T17:20:23.769Z,8.03
2022-12-01T17:22:51.486Z,7.96
2022-12-01T17:25:19.450Z,7.98
2022-12-01T17:27:47.149Z,8.04
2022-12-01T17:30:15.451Z,8.07
2022-12-01T17:32:43.220Z,8.04
2022-12-01T17:35:11.964Z,8.08
2022-12-01T17:37:41.485Z,8.06
2022-12-01T17:40:13.787Z,7.96
2022-12-01T17:42:46.814Z,7.83
2022-12-01T17:45:18.144Z,7.90
2022-12-01T17:47:45.913Z,7.85
2022-12-01T17:50:13.686Z,7.88
2022-12-01T17:52:42.853Z,7.83
2022-12-01T17:55:11.042Z,7.74
2022-12-01T17:57:38.734Z,7.82
2022-12-01T18:00:07.947Z,7.86
2022-12-01T18:02:35.852Z,7.69
2022-12-01T18:05:03.895Z,7.60
2022-12-01T18:07:31.891Z,7.70
2022-12-01T18:10:01.180Z,7.90
2022-12-01T18:12:29.008Z,7.95
2022-12-01T18:14:56.899Z,8.04
2022-12-01T18:17:24.633Z,7.97
2022-12-01T18:19:52.432Z,7.86
2022-12-01T18:22:20.239Z,7.89
2022-12-01T18:24:48.488Z,7.87
2022-12-01T18:27:17.860Z,7.92
2022-12-01T18:29:45.745Z,7.77
2022-12-01T18:32:13.432Z,7.81
2022-12-01T18:34:41.234Z,7.75
2022-12-01T18:37:09.077Z,7.54
2022-12-01T18:39:36.856Z,7.54
2022-12-01T18:42:04.848Z,7.56
2022-12-01T18:44:34.140Z,7.33
2022-12-01T18:47:02.566Z,7.47
2022-12-01T18:49:30.465Z,7.49
2022-12-01T18:51:59.809Z,7.44
2022-12-01T18:54:27.940Z,7.43
2022-12-01T18:56:58.740Z,7.50
2022-12-01T18:59:26.949Z,7.20
2022-12-01T19:01:56.132Z,6.86
2022-12-01T19:04:23.931Z,7.04
2022-12-01T19:06:51.691Z,7.04
2022-12-01T19:09:19.513Z,6.87
2022-12-01T19:11:47.289Z,6.81
2022-12-01T19:14:16.877Z,6.43
2022-12-01T19:16:45.645Z,6.54
2022-12-01T19:19:14.905Z,6.67
2022-12-01T19:21:42.871Z,6.80
2022-12-01T19:24:10.742Z,6.66
2022-12-01T19:26:38.614Z,6.89
2022-12-01T19:29:06.528Z,6.80
2022-12-01T19:31:34.286Z,6.73
2022-12-01T19:34:03.654Z,6.66
2022-12-01T19:36:32.955Z,6.77
2022-12-01T19:39:04.388Z,6.58
2022-12-01T19:41:35.241Z,6.45
2022-12-01T19:44:03.087Z,6.63
2022-12-01T19:46:30.776Z,6.62
2022-12-01T19:49:01.991Z,6.70
2022-12-01T19:51:34.943Z,6.74
2022-12-01T19:54:03.180Z,6.56
2022-12-01T19:56:31.480Z,6.64
2022-12-01T19:58:59.941Z,6.61
2022-12-01T20:01:28.877Z,6.73
2022-12-01T20:03:56.932Z,6.74
2022-12-01T20:06:26.336Z,6.73
2022-12-01T20:08:57.350Z,6.81
2022-12-01T20:11:25.356Z,6.63
2022-12-01T20:13:53.472Z,6.53
2022-12-01T20:16:23.573Z,6.46
2022-12-01T20:18:52.619Z,6.61
2022-12-01T20:21:22.621Z,6.65
2022-12-01T20:23:52.656Z,6.39
2022-12-01T20:26:26.176Z,6.12
2022-12-01T20:29:00.485Z,6.11
2022-12-01T20:31:29.864Z,6.18
2022-12-01T20:33:59.609Z,6.21
2022-12-01T20:36:28.300Z,5.94
2022-12-01T20:38:56.596Z,6.15
2022-12-01T20:41:25.717Z,6.19
2022-12-01T20:43:53.621Z,6.31
2022-12-01T20:46:21.444Z,6.30
2022-12-01T20:48:49.315Z,6.27
2022-12-01T20:51:17.345Z,6.29
2022-12-01T20:54:05.522Z,6.09
2022-12-01T20:56:35.183Z,6.18
2022-12-01T20:59:02.911Z,6.18
2022-12-01T21:01:30.971Z,6.20
2022-12-01T21:03:58.791Z,6.28
2022-12-01T21:06:28.677Z,6.30
2022-12-01T21:08:56.964Z,6.48
2022-12-01T21:11:41.211Z,6.41
2022-12-01T21:14:16.461Z,6.23
2022-12-01T21:16:48.268Z,6.20
2022-12-01T21:19:22.816Z,6.25
2022-12-01T21:21:50.577Z,6.12
2022-12-01T21:24:20.625Z,6.14
2022-12-01T21:26:50.500Z,6.00
2022-12-01T21:29:22.899Z,5.93
2022-12-01T21:31:52.952Z,5.90
2022-12-01T21:34:22.992Z,5.75
2022-12-01T21:36:52.596Z,5.74
2022-12-01T21:39:22.592Z,5.66
2022-12-01T21:41:51.693Z,5.64
2022-12-01T21:44:22.713Z,5.55
2022-12-01T21:46:57.130Z,5.54
2022-12-01T21:49:34.557Z,5.58
2022-12-01T21:52:03.499Z,5.36
2022-12-01T21:54:31.274Z,5.26
2022-12-01T21:56:59.483Z,5.26
2022-12-01T21:59:29.189Z,5.28
2022-12-01T22:01:58.461Z,5.28
2022-12-01T22:04:29.956Z,5.32
2022-12-01T22:06:59.004Z,5.38
2022-12-01T22:09:28.479Z,5.42
2022-12-01T22:11:58.410Z,5.50
2022-12-01T22:14:33.544Z,5.54
2022-12-01T22:17:15.984Z,5.67
2022-12-01T22:19:47.797Z,5.48
2022-12-01T22:22:24.655Z,5.45
2022-12-01T22:24:53.895Z,5.42
2022-12-01T22:27:30.669Z,5.25
2022-12-01T22:30:02.620Z,5.20
2022-12-01T22:32:39.174Z,5.37
2022-12-01T22:35:33.516Z,5.38
2022-12-01T22:38:18.388Z,5.18
2022-12-01T22:40:54.728Z,5.13
2022-12-01T22:43:28.644Z,4.76
2022-12-01T22:46:12.731Z,4.90
2022-12-01T22:48:42.688Z,4.91
2022-12-01T22:51:26.047Z,4.75
2022-12-01T22:53:59.352Z,4.77
2022-12-01T22:56:38.800Z,4.72
2022-12-01T22:59:19.798Z,4.62
2022-12-01T23:01:52.093Z,4.77
2022-12-01T23:04:26.305Z,4.65
2022-12-01T23:07:00.757Z,4.65
2022-12-01T23:09:33.297Z,4.82
2022-12-01T23:12:06.521Z,4.89
2022-12-01T23:14:35.021Z,4.78
2022-12-01T23:17:13.944Z,4.62
2022-12-01T23:19:41.742Z,4.50
2022-12-01T23:22:10.713Z,4.63
2022-12-01T23:24:38.580Z,4.80
2022-12-01T23:27:07.047Z,5.08
2022-12-01T23:29:35.533Z,5.27
2022-12-01T23:32:03.495Z,5.43
2022-12-01T23:34:32.752Z,5.48
2022-12-01T23:37:00.528Z,5.42
2022-12-01T23:39:33.040Z,5.33
2022-12-01T23:42:01.283Z,5.18
2022-12-01T23:44:38.396Z,5.09
2022-12-01T23:47:17.115Z,4.78
2022-12-01T23:49:48.209Z,4.63
2022-12-01T23:52:19.693Z,4.54
2022-12-01T23:54:48.290Z,4.53
2022-12-01T23:57:21.832Z,4.45
2022-12-01T23:59:50.423Z,4.33
